sensor_id;sensor_type;location;lat;lon;timestamp;P1;durP1;ratioP1;P2;durP2;ratioP2
28577;SDS011;15769;52.248;15.818;2023-04-26T00:03:39;9.98;;;4.82;;
28577;SDS011;15769;52.248;15.818;2023-04-26T00:08:42;9.77;;;5.77;;
28577;SDS011;15769;52.248;15.818;2023-04-26T00:13:44;17.90;;;9.55;;
28577;SDS011;15769;52.248;15.818;2023-04-26T00:18:49;12.73;;;7.38;;
28577;SDS011;15769;52.248;15.818;2023-04-26T00:23:52;10.63;;;4.65;;
28577;SDS011;15769;52.248;15.818;2023-04-26T00:29:04;12.43;;;3.92;;
28577;SDS011;15769;52.248;15.818;2023-04-26T00:34:07;6.63;;;2.83;;
28577;SDS011;15769;52.248;15.818;2023-04-26T00:44:15;5.93;;;2.05;;
28577;SDS011;15769;52.248;15.818;2023-04-26T00:49:31;7.00;;;2.60;;
28577;SDS011;15769;52.248;15.818;2023-04-26T00:54:39;11.30;;;2.97;;
28577;SDS011;15769;52.248;15.818;2023-04-26T00:59:44;6.05;;;2.50;;
28577;SDS011;15769;52.248;15.818;2023-04-26T01:04:48;7.20;;;2.40;;
28577;SDS011;15769;52.248;15.818;2023-04-26T01:09:51;5.60;;;1.83;;
28577;SDS011;15769;52.248;15.818;2023-04-26T01:14:55;5.25;;;2.10;;
28577;SDS011;15769;52.248;15.818;2023-04-26T01:20:03;3.95;;;2.00;;
28577;SDS011;15769;52.248;15.818;2023-04-26T01:25:07;7.63;;;2.05;;
28577;SDS011;15769;52.248;15.818;2023-04-26T01:30:13;6.57;;;1.95;;
28577;SDS011;15769;52.248;15.818;2023-04-26T01:35:15;6.28;;;2.45;;
28577;SDS011;15769;52.248;15.818;2023-04-26T01:45:40;6.45;;;2.03;;
28577;SDS011;15769;52.248;15.818;2023-04-26T01:51:02;7.13;;;2.08;;
28577;SDS011;15769;52.248;15.818;2023-04-26T01:56:04;5.82;;;1.98;;
28577;SDS011;15769;52.248;15.818;2023-04-26T02:01:08;7.45;;;2.10;;
28577;SDS011;15769;52.248;15.818;2023-04-26T02:06:11;12.87;;;2.57;;
28577;SDS011;15769;52.248;15.818;2023-04-26T02:11:14;6.72;;;2.38;;
28577;SDS011;15769;52.248;15.818;2023-04-26T02:16:19;5.93;;;2.00;;
28577;SDS011;15769;52.248;15.818;2023-04-26T02:21:22;4.38;;;1.88;;
28577;SDS011;15769;52.248;15.818;2023-04-26T02:26:25;5.65;;;2.20;;
28577;SDS011;15769;52.248;15.818;2023-04-26T02:31:28;7.28;;;1.88;;
28577;SDS011;15769;52.248;15.818;2023-04-26T02:36:31;7.15;;;2.40;;
28577;SDS011;15769;52.248;15.818;2023-04-26T02:41:34;5.75;;;2.10;;
28577;SDS011;15769;52.248;15.818;2023-04-26T02:46:36;11.23;;;2.30;;
28577;SDS011;15769;52.248;15.818;2023-04-26T02:51:40;7.60;;;2.60;;
28577;SDS011;15769;52.248;15.818;2023-04-26T02:56:42;4.43;;;1.65;;
28577;SDS011;15769;52.248;15.818;2023-04-26T03:01:45;6.60;;;2.35;;
28577;SDS011;15769;52.248;15.818;2023-04-26T03:06:47;7.32;;;2.20;;
28577;SDS011;15769;52.248;15.818;2023-04-26T03:11:52;9.43;;;1.92;;
28577;SDS011;15769;52.248;15.818;2023-04-26T03:16:59;8.80;;;2.28;;
28577;SDS011;15769;52.248;15.818;2023-04-26T03:22:02;8.00;;;2.33;;
28577;SDS011;15769;52.248;15.818;2023-04-26T03:27:05;10.80;;;2.80;;
28577;SDS011;15769;52.248;15.818;2023-04-26T03:32:07;5.47;;;1.90;;
28577;SDS011;15769;52.248;15.818;2023-04-26T03:42:22;6.72;;;2.50;;
28577;SDS011;15769;52.248;15.818;2023-04-26T03:47:25;19.73;;;9.80;;
28577;SDS011;15769;52.248;15.818;2023-04-26T03:52:28;10.73;;;5.80;;
28577;SDS011;15769;52.248;15.818;2023-04-26T03:57:33;7.93;;;4.50;;
28577;SDS011;15769;52.248;15.818;2023-04-26T04:02:36;10.00;;;4.55;;
28577;SDS011;15769;52.248;15.818;2023-04-26T04:07:39;8.10;;;3.73;;
28577;SDS011;15769;52.248;15.818;2023-04-26T04:12:42;11.20;;;4.03;;
28577;SDS011;15769;52.248;15.818;2023-04-26T04:17:46;12.75;;;4.18;;
28577;SDS011;15769;52.248;15.818;2023-04-26T04:22:48;8.93;;;3.33;;
28577;SDS011;15769;52.248;15.818;2023-04-26T04:27:51;14.35;;;3.08;;
28577;SDS011;15769;52.248;15.818;2023-04-26T04:32:55;6.20;;;2.88;;
28577;SDS011;15769;52.248;15.818;2023-04-26T04:38:04;11.48;;;3.13;;
28577;SDS011;15769;52.248;15.818;2023-04-26T04:43:08;6.85;;;2.47;;
28577;SDS011;15769;52.248;15.818;2023-04-26T04:48:11;9.88;;;3.05;;
28577;SDS011;15769;52.248;15.818;2023-04-26T04:53:14;8.63;;;3.13;;
28577;SDS011;15769;52.248;15.818;2023-04-26T04:58:17;12.85;;;2.90;;
28577;SDS011;15769;52.248;15.818;2023-04-26T05:03:24;7.75;;;3.40;;
28577;SDS011;15769;52.248;15.818;2023-04-26T05:08:29;12.15;;;3.70;;
28577;SDS011;15769;52.248;15.818;2023-04-26T05:13:36;11.35;;;3.30;;
28577;SDS011;15769;52.248;15.818;2023-04-26T05:18:41;10.63;;;3.05;;
28577;SDS011;15769;52.248;15.818;2023-04-26T05:23:45;9.90;;;2.85;;
28577;SDS011;15769;52.248;15.818;2023-04-26T05:34:09;10.88;;;2.58;;
28577;SDS011;15769;52.248;15.818;2023-04-26T05:39:13;8.55;;;3.15;;
28577;SDS011;15769;52.248;15.818;2023-04-26T05:44:17;8.77;;;2.70;;
28577;SDS011;15769;52.248;15.818;2023-04-26T05:49:24;10.57;;;2.53;;
28577;SDS011;15769;52.248;15.818;2023-04-26T05:54:27;9.15;;;2.03;;
28577;SDS011;15769;52.248;15.818;2023-04-26T05:59:34;4.78;;;2.35;;
28577;SDS011;15769;52.248;15.818;2023-04-26T06:04:38;11.07;;;2.90;;
28577;SDS011;15769;52.248;15.818;2023-04-26T06:09:45;9.48;;;2.40;;
28577;SDS011;15769;52.248;15.818;2023-04-26T06:14:48;9.82;;;3.58;;
28577;SDS011;15769;52.248;15.818;2023-04-26T06:20:03;11.85;;;3.03;;
28577;SDS011;15769;52.248;15.818;2023-04-26T06:25:07;8.32;;;2.45;;
28577;SDS011;15769;52.248;15.818;2023-04-26T06:30:12;5.50;;;2.30;;
28577;SDS011;15769;52.248;15.818;2023-04-26T06:35:18;9.35;;;2.60;;
28577;SDS011;15769;52.248;15.818;2023-04-26T06:40:21;10.75;;;3.33;;
28577;SDS011;15769;52.248;15.818;2023-04-26T06:45:24;9.40;;;3.17;;
28577;SDS011;15769;52.248;15.818;2023-04-26T06:50:26;12.27;;;3.20;;
28577;SDS011;15769;52.248;15.818;2023-04-26T07:00:35;10.25;;;3.28;;
28577;SDS011;15769;52.248;15.818;2023-04-26T07:05:38;11.20;;;3.05;;
28577;SDS011;15769;52.248;15.818;2023-04-26T07:10:46;8.52;;;3.05;;
28577;SDS011;15769;52.248;15.818;2023-04-26T07:15:51;10.40;;;3.75;;
28577;SDS011;15769;52.248;15.818;2023-04-26T07:20:53;7.88;;;4.50;;
28577;SDS011;15769;52.248;15.818;2023-04-26T07:25:56;7.68;;;2.63;;
28577;SDS011;15769;52.248;15.818;2023-04-26T07:30:59;8.30;;;2.88;;
28577;SDS011;15769;52.248;15.818;2023-04-26T07:36:02;9.38;;;3.38;;
28577;SDS011;15769;52.248;15.818;2023-04-26T07:41:05;10.18;;;2.78;;
28577;SDS011;15769;52.248;15.818;2023-04-26T07:46:07;9.23;;;4.20;;
28577;SDS011;15769;52.248;15.818;2023-04-26T07:51:11;7.55;;;3.75;;
28577;SDS011;15769;52.248;15.818;2023-04-26T08:01:16;9.20;;;3.17;;
28577;SDS011;15769;52.248;15.818;2023-04-26T08:06:19;13.07;;;6.13;;
28577;SDS011;15769;52.248;15.818;2023-04-26T08:11:21;7.55;;;2.80;;
28577;SDS011;15769;52.248;15.818;2023-04-26T08:16:24;6.65;;;2.28;;
28577;SDS011;15769;52.248;15.818;2023-04-26T08:21:27;6.53;;;2.30;;
28577;SDS011;15769;52.248;15.818;2023-04-26T08:26:30;5.90;;;2.20;;
28577;SDS011;15769;52.248;15.818;2023-04-26T08:31:33;6.57;;;3.47;;
28577;SDS011;15769;52.248;15.818;2023-04-26T08:36:36;8.18;;;2.97;;
28577;SDS011;15769;52.248;15.818;2023-04-26T08:41:42;6.50;;;3.10;;
28577;SDS011;15769;52.248;15.818;2023-04-26T08:51:49;11.27;;;3.10;;
28577;SDS011;15769;52.248;15.818;2023-04-26T08:56:52;4.03;;;2.00;;
28577;SDS011;15769;52.248;15.818;2023-04-26T09:01:55;10.75;;;7.00;;
28577;SDS011;15769;52.248;15.818;2023-04-26T09:12:02;8.68;;;5.15;;
28577;SDS011;15769;52.248;15.818;2023-04-26T09:17:05;9.05;;;5.32;;
28577;SDS011;15769;52.248;15.818;2023-04-26T09:22:07;7.30;;;3.85;;
28577;SDS011;15769;52.248;15.818;2023-04-26T09:27:10;11.63;;;5.68;;
28577;SDS011;15769;52.248;15.818;2023-04-26T09:32:13;13.50;;;9.23;;
28577;SDS011;15769;52.248;15.818;2023-04-26T09:37:16;8.20;;;4.90;;
28577;SDS011;15769;52.248;15.818;2023-04-26T09:42:21;6.38;;;3.05;;
28577;SDS011;15769;52.248;15.818;2023-04-26T09:47:23;7.23;;;3.87;;
28577;SDS011;15769;52.248;15.818;2023-04-26T09:52:26;8.45;;;4.70;;
28577;SDS011;15769;52.248;15.818;2023-04-26T09:57:30;7.40;;;3.80;;
28577;SDS011;15769;52.248;15.818;2023-04-26T10:02:32;6.68;;;5.43;;
28577;SDS011;15769;52.248;15.818;2023-04-26T10:07:35;6.78;;;4.50;;
28577;SDS011;15769;52.248;15.818;2023-04-26T10:12:39;25.80;;;17.05;;
28577;SDS011;15769;52.248;15.818;2023-04-26T10:17:50;17.65;;;11.10;;
28577;SDS011;15769;52.248;15.818;2023-04-26T10:22:56;10.20;;;7.55;;
28577;SDS011;15769;52.248;15.818;2023-04-26T10:28:06;10.27;;;4.20;;
28577;SDS011;15769;52.248;15.818;2023-04-26T10:33:11;11.55;;;5.57;;
28577;SDS011;15769;52.248;15.818;2023-04-26T10:38:25;9.82;;;7.18;;
28577;SDS011;15769;52.248;15.818;2023-04-26T10:43:36;7.18;;;5.13;;
28577;SDS011;15769;52.248;15.818;2023-04-26T10:48:45;8.38;;;4.15;;
28577;SDS011;15769;52.248;15.818;2023-04-26T11:04:49;30.92;;;14.57;;
28577;SDS011;15769;52.248;15.818;2023-04-26T11:09:57;57.92;;;26.80;;
28577;SDS011;15769;52.248;15.818;2023-04-26T11:15:05;149.27;;;69.97;;
28577;SDS011;15769;52.248;15.818;2023-04-26T11:25:25;81.72;;;35.75;;
28577;SDS011;15769;52.248;15.818;2023-04-26T11:30:31;70.78;;;27.15;;
28577;SDS011;15769;52.248;15.818;2023-04-26T11:35:37;66.35;;;24.58;;
28577;SDS011;15769;52.248;15.818;2023-04-26T11:40:40;47.53;;;17.10;;
28577;SDS011;15769;52.248;15.818;2023-04-26T11:45:42;65.03;;;25.17;;
28577;SDS011;15769;52.248;15.818;2023-04-26T11:50:49;62.58;;;21.77;;
28577;SDS011;15769;52.248;15.818;2023-04-26T11:55:51;62.70;;;22.38;;
28577;SDS011;15769;52.248;15.818;2023-04-26T12:00:58;57.57;;;21.77;;
28577;SDS011;15769;52.248;15.818;2023-04-26T12:06:03;16.35;;;6.28;;
28577;SDS011;15769;52.248;15.818;2023-04-26T12:11:06;70.88;;;26.25;;
28577;SDS011;15769;52.248;15.818;2023-04-26T12:16:11;17.67;;;6.15;;
28577;SDS011;15769;52.248;15.818;2023-04-26T12:21:27;19.40;;;8.93;;
28577;SDS011;15769;52.248;15.818;2023-04-26T12:26:43;16.70;;;8.15;;
28577;SDS011;15769;52.248;15.818;2023-04-26T12:31:46;33.22;;;14.35;;
28577;SDS011;15769;52.248;15.818;2023-04-26T12:36:50;21.65;;;10.27;;
28577;SDS011;15769;52.248;15.818;2023-04-26T12:41:52;18.65;;;8.88;;
28577;SDS011;15769;52.248;15.818;2023-04-26T12:46:56;9.07;;;4.85;;
28577;SDS011;15769;52.248;15.818;2023-04-26T12:51:59;12.37;;;6.03;;
28577;SDS011;15769;52.248;15.818;2023-04-26T12:57:01;14.47;;;6.53;;
28577;SDS011;15769;52.248;15.818;2023-04-26T13:02:04;6.73;;;3.50;;
28577;SDS011;15769;52.248;15.818;2023-04-26T13:07:07;14.18;;;6.53;;
28577;SDS011;15769;52.248;15.818;2023-04-26T13:12:09;15.33;;;6.67;;
28577;SDS011;15769;52.248;15.818;2023-04-26T13:17:13;12.03;;;5.83;;
28577;SDS011;15769;52.248;15.818;2023-04-26T13:22:15;11.02;;;6.05;;
28577;SDS011;15769;52.248;15.818;2023-04-26T13:27:17;18.00;;;9.33;;
28577;SDS011;15769;52.248;15.818;2023-04-26T13:32:20;16.67;;;9.00;;
28577;SDS011;15769;52.248;15.818;2023-04-26T13:37:24;17.23;;;8.35;;
28577;SDS011;15769;52.248;15.818;2023-04-26T13:42:28;24.75;;;11.27;;
28577;SDS011;15769;52.248;15.818;2023-04-26T13:47:30;36.72;;;17.67;;
28577;SDS011;15769;52.248;15.818;2023-04-26T13:52:33;34.10;;;24.43;;
28577;SDS011;15769;52.248;15.818;2023-04-26T13:57:37;28.50;;;15.20;;
28577;SDS011;15769;52.248;15.818;2023-04-26T14:02:40;54.65;;;30.08;;
28577;SDS011;15769;52.248;15.818;2023-04-26T14:07:43;23.58;;;14.85;;
28577;SDS011;15769;52.248;15.818;2023-04-26T14:12:45;32.28;;;18.50;;
28577;SDS011;15769;52.248;15.818;2023-04-26T14:17:48;28.27;;;24.27;;
28577;SDS011;15769;52.248;15.818;2023-04-26T14:22:51;41.63;;;25.20;;
28577;SDS011;15769;52.248;15.818;2023-04-26T14:27:53;17.98;;;8.38;;
28577;SDS011;15769;52.248;15.818;2023-04-26T14:32:57;23.75;;;11.65;;
28577;SDS011;15769;52.248;15.818;2023-04-26T14:38:00;25.77;;;13.10;;
28577;SDS011;15769;52.248;15.818;2023-04-26T14:43:03;53.58;;;15.07;;
28577;SDS011;15769;52.248;15.818;2023-04-26T14:48:05;28.25;;;9.57;;
28577;SDS011;15769;52.248;15.818;2023-04-26T14:53:08;15.43;;;5.60;;
28577;SDS011;15769;52.248;15.818;2023-04-26T14:58:13;23.15;;;11.80;;
28577;SDS011;15769;52.248;15.818;2023-04-26T15:03:16;14.35;;;8.30;;
28577;SDS011;15769;52.248;15.818;2023-04-26T15:08:19;25.27;;;9.90;;
28577;SDS011;15769;52.248;15.818;2023-04-26T15:13:23;15.10;;;5.47;;
28577;SDS011;15769;52.248;15.818;2023-04-26T15:18:26;14.40;;;5.40;;
28577;SDS011;15769;52.248;15.818;2023-04-26T15:28:34;21.27;;;7.88;;
28577;SDS011;15769;52.248;15.818;2023-04-26T15:33:40;25.38;;;12.38;;
28577;SDS011;15769;52.248;15.818;2023-04-26T15:38:46;34.83;;;10.87;;
28577;SDS011;15769;52.248;15.818;2023-04-26T15:43:53;18.83;;;7.00;;
28577;SDS011;15769;52.248;15.818;2023-04-26T15:48:58;23.27;;;11.20;;
28577;SDS011;15769;52.248;15.818;2023-04-26T15:54:01;15.40;;;7.63;;
28577;SDS011;15769;52.248;15.818;2023-04-26T15:59:03;22.87;;;12.30;;
28577;SDS011;15769;52.248;15.818;2023-04-26T16:04:07;24.23;;;13.05;;
28577;SDS011;15769;52.248;15.818;2023-04-26T16:14:26;32.40;;;10.57;;
28577;SDS011;15769;52.248;15.818;2023-04-26T16:19:32;31.88;;;13.10;;
28577;SDS011;15769;52.248;15.818;2023-04-26T16:24:34;20.55;;;9.77;;
28577;SDS011;15769;52.248;15.818;2023-04-26T16:29:37;17.70;;;8.73;;
28577;SDS011;15769;52.248;15.818;2023-04-26T16:34:40;20.03;;;9.40;;
28577;SDS011;15769;52.248;15.818;2023-04-26T16:39:42;44.27;;;15.80;;
28577;SDS011;15769;52.248;15.818;2023-04-26T16:44:46;25.05;;;12.57;;
28577;SDS011;15769;52.248;15.818;2023-04-26T16:49:48;50.80;;;17.63;;
28577;SDS011;15769;52.248;15.818;2023-04-26T16:54:52;41.60;;;17.67;;
28577;SDS011;15769;52.248;15.818;2023-04-26T17:04:57;26.77;;;12.95;;
28577;SDS011;15769;52.248;15.818;2023-04-26T17:10:02;26.10;;;11.50;;
28577;SDS011;15769;52.248;15.818;2023-04-26T17:15:05;40.75;;;15.90;;
28577;SDS011;15769;52.248;15.818;2023-04-26T17:20:12;41.63;;;22.60;;
28577;SDS011;15769;52.248;15.818;2023-04-26T17:25:15;42.47;;;19.65;;
28577;SDS011;15769;52.248;15.818;2023-04-26T17:30:20;42.90;;;13.77;;
28577;SDS011;15769;52.248;15.818;2023-04-26T17:35:22;31.15;;;11.18;;
28577;SDS011;15769;52.248;15.818;2023-04-26T17:40:26;28.50;;;9.80;;
28577;SDS011;15769;52.248;15.818;2023-04-26T17:45:29;33.30;;;13.07;;
28577;SDS011;15769;52.248;15.818;2023-04-26T17:50:31;27.63;;;10.97;;
28577;SDS011;15769;52.248;15.818;2023-04-26T17:55:34;41.80;;;12.70;;
28577;SDS011;15769;52.248;15.818;2023-04-26T18:00:37;37.95;;;15.80;;
28577;SDS011;15769;52.248;15.818;2023-04-26T18:05:40;48.70;;;20.02;;
28577;SDS011;15769;52.248;15.818;2023-04-26T18:10:42;51.57;;;22.20;;
28577;SDS011;15769;52.248;15.818;2023-04-26T18:15:46;43.05;;;16.75;;
28577;SDS011;15769;52.248;15.818;2023-04-26T18:20:50;58.40;;;23.37;;
28577;SDS011;15769;52.248;15.818;2023-04-26T18:25:53;62.40;;;20.75;;
28577;SDS011;15769;52.248;15.818;2023-04-26T18:30:58;32.67;;;16.20;;
28577;SDS011;15769;52.248;15.818;2023-04-26T18:36:02;86.82;;;33.63;;
28577;SDS011;15769;52.248;15.818;2023-04-26T18:41:07;107.30;;;39.83;;
28577;SDS011;15769;52.248;15.818;2023-04-26T18:46:10;65.93;;;28.50;;
28577;SDS011;15769;52.248;15.818;2023-04-26T18:51:13;65.45;;;31.17;;
28577;SDS011;15769;52.248;15.818;2023-04-26T18:56:16;97.20;;;42.15;;
28577;SDS011;15769;52.248;15.818;2023-04-26T19:01:20;74.57;;;34.22;;
28577;SDS011;15769;52.248;15.818;2023-04-26T19:06:23;58.38;;;27.83;;
28577;SDS011;15769;52.248;15.818;2023-04-26T19:11:26;61.50;;;28.33;;
28577;SDS011;15769;52.248;15.818;2023-04-26T19:16:28;47.58;;;23.15;;
28577;SDS011;15769;52.248;15.818;2023-04-26T19:21:33;34.72;;;17.88;;
28577;SDS011;15769;52.248;15.818;2023-04-26T19:26:36;173.53;;;58.27;;
28577;SDS011;15769;52.248;15.818;2023-04-26T19:31:46;219.47;;;61.70;;
28577;SDS011;15769;52.248;15.818;2023-04-26T19:36:51;617.08;;;149.13;;
28577;SDS011;15769;52.248;15.818;2023-04-26T19:41:54;386.38;;;97.43;;
28577;SDS011;15769;52.248;15.818;2023-04-26T19:46:58;222.13;;;69.72;;
28577;SDS011;15769;52.248;15.818;2023-04-26T19:52:01;151.05;;;51.80;;
28577;SDS011;15769;52.248;15.818;2023-04-26T19:57:05;105.63;;;41.03;;
28577;SDS011;15769;52.248;15.818;2023-04-26T20:02:09;89.35;;;34.35;;
28577;SDS011;15769;52.248;15.818;2023-04-26T20:07:12;55.30;;;24.63;;
28577;SDS011;15769;52.248;15.818;2023-04-26T20:12:16;47.58;;;20.52;;
28577;SDS011;15769;52.248;15.818;2023-04-26T20:17:19;65.53;;;29.20;;
28577;SDS011;15769;52.248;15.818;2023-04-26T20:22:22;43.15;;;21.17;;
28577;SDS011;15769;52.248;15.818;2023-04-26T20:27:25;30.65;;;15.15;;
28577;SDS011;15769;52.248;15.818;2023-04-26T20:32:28;39.60;;;18.75;;
28577;SDS011;15769;52.248;15.818;2023-04-26T20:37:31;33.15;;;15.80;;
28577;SDS011;15769;52.248;15.818;2023-04-26T20:42:33;36.47;;;17.70;;
28577;SDS011;15769;52.248;15.818;2023-04-26T20:47:36;34.25;;;14.52;;
28577;SDS011;15769;52.248;15.818;2023-04-26T20:52:39;22.95;;;11.02;;
28577;SDS011;15769;52.248;15.818;2023-04-26T20:57:44;25.70;;;12.50;;
28577;SDS011;15769;52.248;15.818;2023-04-26T21:02:46;22.40;;;11.23;;
28577;SDS011;15769;52.248;15.818;2023-04-26T21:07:49;24.77;;;12.68;;
28577;SDS011;15769;52.248;15.818;2023-04-26T21:12:52;28.27;;;12.70;;
28577;SDS011;15769;52.248;15.818;2023-04-26T21:17:55;24.17;;;10.75;;
28577;SDS011;15769;52.248;15.818;2023-04-26T21:22:58;23.43;;;10.87;;
28577;SDS011;15769;52.248;15.818;2023-04-26T21:28:00;22.63;;;10.57;;
28577;SDS011;15769;52.248;15.818;2023-04-26T21:33:03;24.50;;;10.10;;
28577;SDS011;15769;52.248;15.818;2023-04-26T21:38:06;23.33;;;9.83;;
28577;SDS011;15769;52.248;15.818;2023-04-26T21:43:09;29.87;;;11.43;;
28577;SDS011;15769;52.248;15.818;2023-04-26T21:53:15;14.23;;;7.40;;
28577;SDS011;15769;52.248;15.818;2023-04-26T21:58:23;10.70;;;5.00;;
28577;SDS011;15769;52.248;15.818;2023-04-26T22:03:25;12.93;;;6.72;;
28577;SDS011;15769;52.248;15.818;2023-04-26T22:08:29;12.63;;;6.18;;
28577;SDS011;15769;52.248;15.818;2023-04-26T22:13:31;16.20;;;6.93;;
28577;SDS011;15769;52.248;15.818;2023-04-26T22:18:34;13.63;;;6.97;;
28577;SDS011;15769;52.248;15.818;2023-04-26T22:23:36;15.50;;;7.38;;
28577;SDS011;15769;52.248;15.818;2023-04-26T22:28:39;17.13;;;7.47;;
28577;SDS011;15769;52.248;15.818;2023-04-26T22:33:42;14.83;;;6.80;;
28577;SDS011;15769;52.248;15.818;2023-04-26T22:38:45;12.20;;;6.77;;
28577;SDS011;15769;52.248;15.818;2023-04-26T22:43:47;12.27;;;6.75;;
28577;SDS011;15769;52.248;15.818;2023-04-26T22:48:52;12.13;;;6.57;;
28577;SDS011;15769;52.248;15.818;2023-04-26T22:53:54;10.55;;;5.72;;
28577;SDS011;15769;52.248;15.818;2023-04-26T22:58:57;11.88;;;6.45;;
28577;SDS011;15769;52.248;15.818;2023-04-26T23:04:02;17.73;;;6.88;;
28577;SDS011;15769;52.248;15.818;2023-04-26T23:09:04;13.63;;;7.18;;
28577;SDS011;15769;52.248;15.818;2023-04-26T23:14:07;13.50;;;6.97;;
28577;SDS011;15769;52.248;15.818;2023-04-26T23:19:11;14.20;;;6.47;;
28577;SDS011;15769;52.248;15.818;2023-04-26T23:24:14;12.13;;;6.53;;
28577;SDS011;15769;52.248;15.818;2023-04-26T23:29:18;9.77;;;5.22;;
28577;SDS011;15769;52.248;15.818;2023-04-26T23:34:21;12.40;;;5.63;;
28577;SDS011;15769;52.248;15.818;2023-04-26T23:39:24;13.35;;;6.05;;
28577;SDS011;15769;52.248;15.818;2023-04-26T23:44:33;13.93;;;6.70;;
28577;SDS011;15769;52.248;15.818;2023-04-26T23:49:46;13.75;;;6.07;;
28577;SDS011;15769;52.248;15.818;2023-04-26T23:54:48;12.88;;;6.15;;
28577;SDS011;15769;52.248;15.818;2023-04-26T23:59:52;14.60;;;6.20;;
